Raleigh, Canada
Current Conditions -  °F | °C
As of 4:00 AM on Saturday 25 Oct 2014 (Local Time) from CYAY Reporting Station
Overcast Overcast  
Wind Chill: 26°   Ceiling: 1800
Heat Index: 37°   Visibility: 9mi
Dew Point: 32°   Wind: 25mph
Humidity: 81%   Direction: 40°NE
Pressure: 29.83"   Gusts: 31mph
Location:  51.55°N, 55.72°W
Report Text: CYAY 250600Z AUTO 04022G27KT 9SM OVC018 03/00 A2983 RMK SLP101
Loading
Personal Weather Stations






























Interactive Weather Map
Tropical Storm Tracking
New forecast layout! Learn more

10-Day Weather Forecast

Advertisements
Track Severe Weather on mobile